Clarks, Louisiana
Current Conditions -  °F | °C
As of 7:53 PM on Thursday 20 Nov 2014 (Local Time) from KMLU Reporting Station
Few Clouds Few Clouds  
Wind Chill: 56°   Ceiling: Unl
Heat Index: 56°   Visibility: 10mi
Dew Point: 52°   Wind: 6mph
Humidity: 87%   Direction: 90°E
Pressure: 30.16"   Gusts: NA
Location:  32.03°N, 92.14°W
Report Text: KMLU 210153Z 09005KT 10SM FEW080 13/11 A3016 RMK AO2 SLP213 T01330111
Loading
Personal Weather Stations






























Interactive Weather Map New forecast layout! Learn more

10-Day Weather Forecast

Advertisements
Track Severe Weather on mobile